Time;durP1;ratioP1;P1;durP2;ratioP2;P2;SDS_P1;SDS_P2;PMS_P1;PMS_P2;Temp;Humidity;BMP_temperature;BMP_pressure;BME280_temperature;BME280_humidity;BME280_pressure;Samples;Min_cycle;Max_cycle;Signal;HPM_P1;HPM_P2
2022/12/25 00:04:57;;;;;;;9.00;3.57;;;;;;;;;;10410637;28;20578;-62
2022/12/25 00:09:57;;;;;;;12.87;3.33;;;;;;;;;;10411652;28;20207;-62
2022/12/25 00:14:57;;;;;;;23.00;3.67;;;;;;;;;;10410386;28;20235;-61
2022/12/25 00:19:57;;;;;;;13.67;3.67;;;;;;;;;;10411018;28;20192;-62
2022/12/25 00:24:58;;;;;;;16.10;3.63;;;;;;;;;;10411025;28;20589;-62
2022/12/25 00:29:58;;;;;;;12.30;3.33;;;;;;;;;;10410590;28;20204;-61
2022/12/25 00:34:58;;;;;;;12.70;3.67;;;;;;;;;;10409744;28;20327;-61
2022/12/25 00:39:58;;;;;;;12.87;2.87;;;;;;;;;;10468084;23;20244;-65
2022/12/25 00:45:00;;;;;;;11.80;3.30;;;;;;;;;;10450427;28;20188;-64
2022/12/25 00:50:00;;;;;;;8.47;3.10;;;;;;;;;;10451411;28;20203;-64
2022/12/25 00:55:00;;;;;;;12.40;3.23;;;;;;;;;;10450664;28;20224;-67
2022/12/25 01:00:00;;;;;;;11.47;4.20;;;;;;;;;;10450399;28;20512;-66
2022/12/25 01:05:01;;;;;;;13.73;3.60;;;;;;;;;;10450389;28;20194;-66
2022/12/25 01:15:20;;;;;;;6.53;2.90;;;;;;;;;;10449632;28;20306;-66
2022/12/25 01:20:20;;;;;;;15.10;3.03;;;;;;;;;;10449965;28;20183;-65
2022/12/25 01:25:20;;;;;;;8.63;3.13;;;;;;;;;;10449556;28;20568;-66
2022/12/25 01:30:20;;;;;;;20.27;4.13;;;;;;;;;;10449039;28;20427;-65
2022/12/25 01:35:20;;;;;;;14.40;4.30;;;;;;;;;;10449783;28;20299;-66
2022/12/25 01:40:21;;;;;;;11.00;3.50;;;;;;;;;;10448288;28;20738;-66
2022/12/25 01:45:35;;;;;;;9.47;3.30;;;;;;;;;;10449181;28;20326;-66
2022/12/25 01:50:36;;;;;;;10.13;3.27;;;;;;;;;;10448941;28;20195;-66
2022/12/25 01:55:36;;;;;;;10.10;2.97;;;;;;;;;;10447795;28;20304;-63
2022/12/25 02:00:37;;;;;;;16.33;3.63;;;;;;;;;;10447745;28;20252;-65
2022/12/25 02:05:37;;;;;;;16.10;3.63;;;;;;;;;;10447816;28;20294;-63
2022/12/25 02:10:38;;;;;;;11.90;3.40;;;;;;;;;;10447884;28;20689;-65
2022/12/25 02:15:57;;;;;;;11.83;3.17;;;;;;;;;;10448117;28;20489;-65
2022/12/25 02:21:07;;;;;;;14.77;3.23;;;;;;;;;;10448549;28;20199;-64
2022/12/25 02:26:15;;;;;;;12.33;3.43;;;;;;;;;;10447485;28;20614;-65
2022/12/25 02:31:19;;;;;;;14.17;3.90;;;;;;;;;;10448189;28;20632;-66
2022/12/25 02:36:21;;;;;;;10.33;2.83;;;;;;;;;;10447448;28;20627;-63
2022/12/25 02:41:22;;;;;;;17.90;3.27;;;;;;;;;;10446851;28;20187;-65
2022/12/25 03:08:03;;;;;;;11.33;3.20;;;;;;;;;;10452715;28;20295;-64
2022/12/25 03:13:08;;;;;;;13.37;3.10;;;;;;;;;;10455035;28;20199;-66
2022/12/25 03:18:10;;;;;;;11.73;2.80;;;;;;;;;;10454606;28;20701;-66
2022/12/25 03:28:30;;;;;;;13.23;3.30;;;;;;;;;;10454054;28;20207;-66
2022/12/25 03:33:34;;;;;;;14.47;2.77;;;;;;;;;;10454335;28;20566;-66
2022/12/25 04:37:06;;;;;;;16.17;3.67;;;;;;;;;;10443649;28;20224;-64
2022/12/25 04:42:06;;;;;;;9.60;3.27;;;;;;;;;;10444308;28;20192;-63
2022/12/25 04:47:06;;;;;;;7.80;2.73;;;;;;;;;;10443483;28;20678;-63
2022/12/25 04:52:06;;;;;;;8.13;3.70;;;;;;;;;;10443240;28;20191;-63
2022/12/25 04:57:06;;;;;;;17.00;3.63;;;;;;;;;;10442938;28;20255;-65
2022/12/25 05:02:08;;;;;;;11.47;3.37;;;;;;;;;;10445822;28;20192;-65
2022/12/25 05:07:08;;;;;;;17.30;2.10;;;;;;;;;;10449195;28;20207;-65
2022/12/25 05:12:08;;;;;;;12.60;3.27;;;;;;;;;;10450081;28;20196;-65
2022/12/25 05:17:09;;;;;;;16.97;3.97;;;;;;;;;;10449592;28;20231;-65
2022/12/25 05:22:09;;;;;;;8.30;3.00;;;;;;;;;;10449724;28;20180;-65
2022/12/25 05:27:09;;;;;;;6.73;2.73;;;;;;;;;;10448843;28;20212;-63
2022/12/25 05:32:09;;;;;;;9.83;3.07;;;;;;;;;;10449272;28;20202;-63
2022/12/25 05:37:09;;;;;;;7.33;2.87;;;;;;;;;;10448741;28;20236;-63
2022/12/25 05:42:10;;;;;;;5.27;2.53;;;;;;;;;;10448946;28;20203;-62
2022/12/25 05:47:10;;;;;;;10.03;2.90;;;;;;;;;;10448452;28;20266;-65
2022/12/25 05:52:10;;;;;;;7.10;2.50;;;;;;;;;;10449154;28;20197;-62
2022/12/25 05:57:10;;;;;;;11.37;2.80;;;;;;;;;;10448123;28;20234;-65
2022/12/25 06:02:10;;;;;;;11.27;3.27;;;;;;;;;;10448691;28;20654;-61
2022/12/25 06:07:11;;;;;;;9.57;3.07;;;;;;;;;;10447292;28;20202;-65
2022/12/25 06:12:11;;;;;;;14.47;4.50;;;;;;;;;;10448493;28;20192;-62
2022/12/25 06:17:11;;;;;;;14.70;3.53;;;;;;;;;;10448007;28;20306;-61
2022/12/25 06:22:11;;;;;;;9.23;3.37;;;;;;;;;;10448126;28;20191;-65
2022/12/25 06:27:11;;;;;;;9.67;2.90;;;;;;;;;;10446504;28;20712;-63
2022/12/25 06:32:12;;;;;;;11.43;3.23;;;;;;;;;;10447222;28;20194;-65
2022/12/25 06:37:13;;;;;;;10.43;3.03;;;;;;;;;;10473813;23;20269;-60
2022/12/25 06:42:13;;;;;;;14.23;2.97;;;;;;;;;;10495901;28;20218;-56
2022/12/25 06:47:14;;;;;;;12.97;3.30;;;;;;;;;;10496568;28;20210;-54
2022/12/25 06:52:14;;;;;;;7.10;2.77;;;;;;;;;;10497463;28;20179;-56
2022/12/25 06:57:14;;;;;;;10.17;3.17;;;;;;;;;;10496703;28;20241;-57
2022/12/25 07:02:16;;;;;;;16.30;3.73;;;;;;;;;;10495962;28;20646;-55
2022/12/25 07:07:17;;;;;;;12.73;3.07;;;;;;;;;;10495856;28;20207;-55
2022/12/25 07:12:22;;;;;;;7.47;2.70;;;;;;;;;;10496033;28;20243;-59
2022/12/25 07:17:23;;;;;;;15.47;5.47;;;;;;;;;;10495554;28;20233;-57
2022/12/25 07:22:23;;;;;;;43.50;24.63;;;;;;;;;;10495673;28;20186;-57
2022/12/25 07:27:23;;;;;;;16.63;6.03;;;;;;;;;;10495302;28;20208;-57
2022/12/25 07:32:23;;;;;;;12.73;3.63;;;;;;;;;;10495624;28;20183;-55
2022/12/25 07:37:23;;;;;;;13.70;4.10;;;;;;;;;;10494584;28;20325;-55
2022/12/25 07:42:23;;;;;;;7.13;3.50;;;;;;;;;;10495080;28;20280;-55
2022/12/25 07:47:24;;;;;;;8.70;3.10;;;;;;;;;;10494025;28;20215;-58
2022/12/25 07:52:24;;;;;;;7.73;3.23;;;;;;;;;;10494179;28;20204;-55
2022/12/25 07:57:24;;;;;;;8.43;3.20;;;;;;;;;;10493679;28;20264;-56
2022/12/25 08:02:27;;;;;;;10.30;2.73;;;;;;;;;;10494339;28;20194;-56
2022/12/25 08:07:27;;;;;;;9.40;3.20;;;;;;;;;;10493548;28;20565;-58
2022/12/25 08:12:27;;;;;;;15.67;3.40;;;;;;;;;;10493278;28;20195;-58
2022/12/25 08:17:27;;;;;;;6.17;2.73;;;;;;;;;;10493303;28;20234;-56
2022/12/25 08:22:28;;;;;;;8.37;2.70;;;;;;;;;;10493537;28;20210;-60
2022/12/25 08:27:28;;;;;;;8.17;3.10;;;;;;;;;;10492920;28;20241;-62
2022/12/25 08:32:30;;;;;;;11.23;3.23;;;;;;;;;;10493094;28;20194;-61
2022/12/25 08:37:30;;;;;;;7.90;3.00;;;;;;;;;;10493426;28;20722;-60
2022/12/25 08:42:31;;;;;;;14.00;3.60;;;;;;;;;;10489641;28;20206;-60
2022/12/25 08:47:31;;;;;;;8.87;3.80;;;;;;;;;;10491469;28;20451;-60
2022/12/25 08:52:31;;;;;;;9.73;2.93;;;;;;;;;;10492401;28;20241;-60
2022/12/25 08:57:31;;;;;;;14.43;3.40;;;;;;;;;;10491269;28;20223;-59
2022/12/25 09:02:31;;;;;;;8.50;2.97;;;;;;;;;;10492023;28;20553;-61
2022/12/25 09:07:31;;;;;;;8.23;2.63;;;;;;;;;;10491164;28;20203;-62
2022/12/25 09:12:32;;;;;;;6.90;2.67;;;;;;;;;;10490530;28;20199;-62
2022/12/25 09:17:32;;;;;;;9.33;3.20;;;;;;;;;;10481731;28;20218;-60
2022/12/25 09:22:32;;;;;;;8.77;3.00;;;;;;;;;;10469617;28;20169;-60
2022/12/25 09:27:33;;;;;;;6.60;2.87;;;;;;;;;;10464493;28;20532;-58
2022/12/25 09:32:33;;;;;;;6.53;2.50;;;;;;;;;;10467807;28;20188;-61
2022/12/25 09:37:33;;;;;;;17.03;7.90;;;;;;;;;;10468812;28;20286;-57
2022/12/25 09:42:33;;;;;;;5.30;2.80;;;;;;;;;;10446288;28;20192;-60
2022/12/25 09:47:36;;;;;;;7.10;3.57;;;;;;;;;;10448057;28;20238;-59
2022/12/25 09:52:41;;;;;;;6.50;3.37;;;;;;;;;;10446433;28;20442;-59
2022/12/25 09:57:41;;;;;;;8.07;3.47;;;;;;;;;;10448421;28;20228;-62
2022/12/25 10:03:00;;;;;;;10.60;6.47;;;;;;;;;;10448299;28;20604;-60
2022/12/25 10:08:06;;;;;;;5.80;3.43;;;;;;;;;;10447693;28;20243;-62
2022/12/25 10:13:16;;;;;;;7.23;3.73;;;;;;;;;;10447561;28;20215;-61
2022/12/25 10:18:22;;;;;;;22.77;11.10;;;;;;;;;;10447774;28;20732;-61
2022/12/25 10:23:31;;;;;;;33.77;15.53;;;;;;;;;;10447332;28;20259;-61
2022/12/25 10:28:39;;;;;;;9.80;4.40;;;;;;;;;;10447327;28;20211;-62
2022/12/25 10:33:40;;;;;;;8.40;4.37;;;;;;;;;;10480657;28;20203;-62
2022/12/25 10:38:40;;;;;;;7.73;3.43;;;;;;;;;;10487368;28;20230;-60
2022/12/25 10:43:51;;;;;;;8.83;2.70;;;;;;;;;;10488747;28;20183;-62
2022/12/25 10:48:53;;;;;;;8.20;2.30;;;;;;;;;;10488335;28;20242;-61
2022/12/25 10:53:53;;;;;;;6.07;1.87;;;;;;;;;;10487775;28;20194;-58
2022/12/25 10:59:06;;;;;;;8.80;2.70;;;;;;;;;;10488558;28;20222;-58
2022/12/25 11:04:13;;;;;;;5.17;2.30;;;;;;;;;;10488105;28;20925;-62
2022/12/25 11:09:15;;;;;;;8.93;2.87;;;;;;;;;;10487420;28;20219;-63
2022/12/25 11:14:16;;;;;;;8.40;2.93;;;;;;;;;;10447093;28;20208;-60
2022/12/25 11:19:21;;;;;;;8.93;2.93;;;;;;;;;;10445963;28;20220;-62
2022/12/25 11:24:24;;;;;;;11.37;3.40;;;;;;;;;;10446658;28;20198;-60
2022/12/25 11:29:36;;;;;;;9.57;4.00;;;;;;;;;;10450688;28;20212;-59
2022/12/25 11:34:40;;;;;;;5.47;2.97;;;;;;;;;;10453504;28;20230;-59
2022/12/25 11:39:40;;;;;;;13.53;3.43;;;;;;;;;;10452578;28;20232;-62
2022/12/25 11:44:59;;;;;;;5.40;2.53;;;;;;;;;;10452980;28;20564;-62
2022/12/25 11:50:22;;;;;;;4.77;3.00;;;;;;;;;;10452375;28;20247;-63
2022/12/25 11:55:34;;;;;;;4.47;2.60;;;;;;;;;;10444368;28;20231;-63
2022/12/25 12:00:34;;;;;;;7.20;2.90;;;;;;;;;;10452189;28;20208;-62
2022/12/25 12:05:41;;;;;;;13.37;2.20;;;;;;;;;;10452757;28;20188;-63
2022/12/25 12:11:14;;;;;;;2.90;2.50;;;;;;;;;;10451592;28;20215;-61
2022/12/25 12:16:14;;;;;;;8.30;3.00;;;;;;;;;;10452085;28;20234;-63
2022/12/25 12:21:28;;;;;;;7.27;2.90;;;;;;;;;;10450913;28;20198;-62
2022/12/25 12:26:30;;;;;;;5.63;2.83;;;;;;;;;;10451392;28;20208;-62
2022/12/25 12:31:45;;;;;;;4.83;2.40;;;;;;;;;;10450459;28;20192;-61
2022/12/25 12:36:45;;;;;;;9.77;2.73;;;;;;;;;;10480170;23;20236;-60
2022/12/25 12:41:47;;;;;;;9.87;3.10;;;;;;;;;;10408119;28;20739;-55
2022/12/25 12:46:51;;;;;;;7.20;3.10;;;;;;;;;;10409887;28;20195;-54
2022/12/25 12:52:02;;;;;;;3.77;2.40;;;;;;;;;;10409285;28;20631;-59
2022/12/25 12:57:20;;;;;;;6.33;2.53;;;;;;;;;;10409345;28;20235;-57
2022/12/25 13:02:47;;;;;;;10.80;3.03;;;;;;;;;;10408799;28;20224;-54
2022/12/25 13:07:52;;;;;;;10.37;4.00;;;;;;;;;;10408610;28;20209;-60
2022/12/25 13:12:54;;;;;;;8.77;4.20;;;;;;;;;;10408537;28;20523;-58
2022/12/25 13:17:55;;;;;;;7.13;3.27;;;;;;;;;;10408734;28;20235;-59
2022/12/25 13:22:56;;;;;;;7.03;3.87;;;;;;;;;;10408505;28;20290;-61
2022/12/25 13:27:56;;;;;;;7.87;3.17;;;;;;;;;;10406412;28;20287;-61
2022/12/25 13:32:58;;;;;;;11.43;3.37;;;;;;;;;;10406736;28;20196;-61
2022/12/25 13:37:59;;;;;;;8.70;3.50;;;;;;;;;;10406448;28;20695;-60
2022/12/25 13:42:59;;;;;;;15.43;4.13;;;;;;;;;;10406726;28;20196;-61
2022/12/25 13:48:08;;;;;;;6.93;2.83;;;;;;;;;;10404879;28;20299;-63
2022/12/25 13:53:09;;;;;;;7.30;3.93;;;;;;;;;;10406498;28;20196;-61
2022/12/25 13:58:15;;;;;;;7.17;3.50;;;;;;;;;;10405514;28;20725;-60
2022/12/25 14:03:20;;;;;;;5.67;3.23;;;;;;;;;;10388038;28;20189;-61
2022/12/25 14:08:22;;;;;;;6.17;4.27;;;;;;;;;;10405917;28;20213;-61
2022/12/25 14:13:25;;;;;;;8.60;3.70;;;;;;;;;;10405299;28;20188;-59
2022/12/25 14:18:26;;;;;;;8.47;5.40;;;;;;;;;;10405546;28;20216;-59
2022/12/25 14:23:30;;;;;;;8.73;4.77;;;;;;;;;;10405768;28;20197;-60
2022/12/25 14:28:33;;;;;;;9.73;3.67;;;;;;;;;;10404329;28;20569;-58
2022/12/25 14:33:36;;;;;;;9.00;3.80;;;;;;;;;;10405503;28;20185;-60
2022/12/25 14:38:39;;;;;;;7.40;3.23;;;;;;;;;;10404972;28;20641;-60
2022/12/25 14:43:49;;;;;;;5.47;3.40;;;;;;;;;;10404776;28;20227;-60
2022/12/25 14:49:03;;;;;;;9.53;3.90;;;;;;;;;;10404993;28;20609;-61
2022/12/25 14:54:12;;;;;;;4.33;2.17;;;;;;;;;;10405227;28;20195;-62
2022/12/25 14:59:15;;;;;;;9.63;3.20;;;;;;;;;;10403276;28;20288;-61
2022/12/25 15:04:16;;;;;;;10.63;4.27;;;;;;;;;;10412702;28;20274;-60
2022/12/25 15:09:17;;;;;;;7.57;3.13;;;;;;;;;;10410902;28;20304;-59
2022/12/25 15:14:18;;;;;;;7.17;3.00;;;;;;;;;;10412306;28;20220;-60
2022/12/25 15:19:19;;;;;;;7.30;3.80;;;;;;;;;;10412162;28;20591;-61
2022/12/25 15:24:19;;;;;;;9.47;3.17;;;;;;;;;;10395352;28;20204;-59
2022/12/25 15:29:20;;;;;;;5.13;2.43;;;;;;;;;;10374282;28;20212;-60
2022/12/25 15:34:20;;;;;;;5.30;3.67;;;;;;;;;;10407284;28;20422;-62
2022/12/25 15:39:20;;;;;;;5.03;3.27;;;;;;;;;;10406560;28;20242;-59
2022/12/25 15:44:21;;;;;;;4.87;2.40;;;;;;;;;;10406845;28;20439;-61
2022/12/25 15:49:21;;;;;;;5.67;3.00;;;;;;;;;;10378727;28;20224;-60
2022/12/25 15:54:21;;;;;;;8.33;4.07;;;;;;;;;;10365902;28;20777;-62
2022/12/25 15:59:21;;;;;;;5.73;2.97;;;;;;;;;;10365284;28;20201;-62
2022/12/25 16:04:22;;;;;;;3.80;2.30;;;;;;;;;;10365264;28;20656;-60
2022/12/25 16:09:23;;;;;;;6.73;2.90;;;;;;;;;;10364646;28;20463;-61
2022/12/25 16:14:23;;;;;;;7.13;3.40;;;;;;;;;;10364097;28;20213;-62
2022/12/25 16:19:23;;;;;;;8.13;4.73;;;;;;;;;;10383979;28;20208;-63
2022/12/25 16:24:23;;;;;;;6.03;3.80;;;;;;;;;;10404553;28;20196;-59
2022/12/25 16:29:23;;;;;;;7.70;5.47;;;;;;;;;;10404765;28;20214;-60
2022/12/25 16:34:24;;;;;;;7.33;4.47;;;;;;;;;;10405513;28;20497;-62
2022/12/25 16:39:24;;;;;;;5.77;3.50;;;;;;;;;;10404552;28;21058;-60
2022/12/25 16:44:24;;;;;;;7.87;4.17;;;;;;;;;;10386204;28;20205;-61
2022/12/25 16:49:24;;;;;;;10.00;4.73;;;;;;;;;;10382352;28;20243;-61
2022/12/25 16:54:24;;;;;;;10.73;4.63;;;;;;;;;;10404356;28;20275;-61
2022/12/25 16:59:26;;;;;;;11.10;5.17;;;;;;;;;;10403236;28;20212;-60
2022/12/25 17:04:26;;;;;;;10.07;5.00;;;;;;;;;;10403301;28;20271;-60
2022/12/25 17:09:27;;;;;;;7.07;4.77;;;;;;;;;;10403438;28;20243;-57
2022/12/25 17:14:27;;;;;;;5.80;3.60;;;;;;;;;;10403195;28;20228;-58
2022/12/25 17:19:27;;;;;;;11.83;5.20;;;;;;;;;;10402131;28;20239;-60
2022/12/25 17:24:27;;;;;;;6.30;4.20;;;;;;;;;;10397655;28;20548;-58
2022/12/25 17:29:28;;;;;;;8.30;4.33;;;;;;;;;;10400863;28;20231;-59
2022/12/25 17:34:28;;;;;;;8.83;4.03;;;;;;;;;;10401103;28;20632;-60
2022/12/25 17:39:28;;;;;;;7.00;3.83;;;;;;;;;;10401076;28;20573;-60
2022/12/25 17:44:28;;;;;;;7.20;4.17;;;;;;;;;;10388558;28;20196;-60
2022/12/25 17:49:29;;;;;;;8.97;4.47;;;;;;;;;;10374622;28;20240;-60
2022/12/25 17:54:29;;;;;;;8.90;4.33;;;;;;;;;;10401484;28;20212;-60
2022/12/25 17:59:29;;;;;;;7.80;4.77;;;;;;;;;;10401641;28;20196;-59
2022/12/25 18:04:29;;;;;;;6.70;4.73;;;;;;;;;;10402250;28;20753;-60
2022/12/25 18:09:29;;;;;;;7.27;4.10;;;;;;;;;;10402310;28;20224;-56
2022/12/25 18:14:29;;;;;;;6.30;4.07;;;;;;;;;;10402481;28;20623;-58
2022/12/25 18:19:30;;;;;;;9.27;4.90;;;;;;;;;;10401502;28;20258;-62
2022/12/25 18:24:30;;;;;;;8.13;4.57;;;;;;;;;;10400874;28;20180;-61
2022/12/25 18:29:30;;;;;;;9.47;4.93;;;;;;;;;;10394669;28;20220;-57
2022/12/25 18:34:30;;;;;;;7.97;4.27;;;;;;;;;;10397588;28;20731;-60
2022/12/25 18:39:31;;;;;;;7.47;4.80;;;;;;;;;;10427969;23;20654;-60
2022/12/25 18:44:31;;;;;;;11.07;4.77;;;;;;;;;;10409478;28;20211;-62
2022/12/25 18:49:32;;;;;;;6.47;4.47;;;;;;;;;;10422833;28;20843;-62
2022/12/25 18:54:32;;;;;;;8.97;4.60;;;;;;;;;;10453853;28;20215;-63
2022/12/25 18:59:32;;;;;;;5.73;4.10;;;;;;;;;;10454835;28;20553;-63
2022/12/25 19:04:32;;;;;;;8.70;4.70;;;;;;;;;;10433647;28;20181;-63
2022/12/25 19:09:33;;;;;;;6.97;4.07;;;;;;;;;;10409670;28;20212;-63
2022/12/25 19:14:33;;;;;;;6.37;4.10;;;;;;;;;;10409891;28;20212;-63
2022/12/25 19:19:34;;;;;;;5.83;3.03;;;;;;;;;;10408312;28;20768;-63
2022/12/25 19:24:35;;;;;;;13.43;4.23;;;;;;;;;;10409800;28;20223;-63
2022/12/25 19:29:35;;;;;;;6.43;3.63;;;;;;;;;;10408266;28;20374;-63
2022/12/25 19:34:35;;;;;;;3.90;2.40;;;;;;;;;;10409577;28;20240;-63
2022/12/25 19:39:36;;;;;;;8.93;3.97;;;;;;;;;;10406525;28;20380;-63
2022/12/25 19:44:37;;;;;;;3.93;2.93;;;;;;;;;;10404686;28;20184;-62
2022/12/25 19:49:37;;;;;;;5.57;3.90;;;;;;;;;;10401828;28;20224;-63
2022/12/25 19:54:37;;;;;;;5.57;3.07;;;;;;;;;;10403118;28;20694;-63
2022/12/25 19:59:37;;;;;;;7.23;3.50;;;;;;;;;;10403150;28;20208;-63
2022/12/25 20:04:37;;;;;;;8.10;3.47;;;;;;;;;;10401911;28;20193;-63
2022/12/25 20:09:38;;;;;;;6.90;3.77;;;;;;;;;;10403062;28;20725;-63
2022/12/25 20:14:38;;;;;;;4.97;3.40;;;;;;;;;;10402794;28;20219;-63
2022/12/25 20:19:38;;;;;;;4.67;3.30;;;;;;;;;;10401220;28;20501;-64
2022/12/25 20:24:38;;;;;;;5.13;3.57;;;;;;;;;;10401962;28;20201;-64
2022/12/25 20:29:39;;;;;;;6.40;4.17;;;;;;;;;;10401607;28;20219;-64
2022/12/25 20:34:39;;;;;;;7.07;4.50;;;;;;;;;;10400927;28;20331;-62
2022/12/25 20:39:39;;;;;;;6.20;3.50;;;;;;;;;;10401480;28;20231;-64
2022/12/25 20:44:39;;;;;;;4.40;3.10;;;;;;;;;;10401333;28;20204;-62
2022/12/25 20:49:40;;;;;;;6.10;3.60;;;;;;;;;;10400739;28;20220;-64
2022/12/25 20:54:41;;;;;;;4.93;3.20;;;;;;;;;;10401309;28;20289;-64
2022/12/25 20:59:41;;;;;;;5.93;3.63;;;;;;;;;;10399717;28;20201;-62
2022/12/25 21:04:41;;;;;;;6.60;3.83;;;;;;;;;;10400850;28;20689;-64
2022/12/25 21:09:42;;;;;;;5.30;3.23;;;;;;;;;;10399456;28;20228;-64
2022/12/25 21:14:42;;;;;;;5.33;3.53;;;;;;;;;;10400000;28;20220;-64
2022/12/25 21:19:42;;;;;;;5.27;2.90;;;;;;;;;;10399561;28;20205;-63
2022/12/25 21:24:43;;;;;;;4.83;3.63;;;;;;;;;;10399723;28;20180;-64
2022/12/25 21:29:43;;;;;;;6.77;4.10;;;;;;;;;;10399229;28;20247;-64
2022/12/25 21:34:43;;;;;;;6.00;3.30;;;;;;;;;;10406053;28;20630;-63
2022/12/25 21:39:43;;;;;;;7.23;3.10;;;;;;;;;;10407323;28;20240;-61
2022/12/25 21:44:44;;;;;;;6.80;3.50;;;;;;;;;;10406312;28;20669;-62
2022/12/25 21:55:03;;;;;;;5.17;3.43;;;;;;;;;;10404271;28;20216;-62
2022/12/25 22:00:03;;;;;;;5.40;3.57;;;;;;;;;;10405555;28;20208;-63
2022/12/25 22:05:06;;;;;;;4.30;3.43;;;;;;;;;;10405261;28;20211;-62
2022/12/25 22:10:06;;;;;;;3.57;2.50;;;;;;;;;;10405521;28;20219;-64
2022/12/25 22:15:08;;;;;;;6.00;2.53;;;;;;;;;;10404953;28;20220;-64
2022/12/25 22:20:09;;;;;;;2.87;2.43;;;;;;;;;;10405095;28;20217;-64
2022/12/25 22:25:10;;;;;;;4.40;2.30;;;;;;;;;;10405696;28;20263;-64
2022/12/25 22:30:12;;;;;;;3.13;1.90;;;;;;;;;;10402893;28;20208;-64
2022/12/25 22:35:13;;;;;;;4.17;2.23;;;;;;;;;;10403206;28;20240;-64
2022/12/25 22:40:14;;;;;;;2.10;1.57;;;;;;;;;;10404263;28;20264;-63
2022/12/25 22:45:15;;;;;;;2.80;1.83;;;;;;;;;;10405778;28;20204;-63
2022/12/25 22:50:15;;;;;;;3.33;2.07;;;;;;;;;;10405726;28;20220;-62
2022/12/25 22:55:17;;;;;;;2.00;1.80;;;;;;;;;;10405847;28;20270;-63
2022/12/25 23:00:17;;;;;;;2.00;1.53;;;;;;;;;;10405592;28;20244;-63
2022/12/25 23:05:17;;;;;;;2.93;1.93;;;;;;;;;;10405658;28;20287;-64
2022/12/25 23:10:17;;;;;;;4.97;2.53;;;;;;;;;;10405654;28;20204;-63
2022/12/25 23:15:17;;;;;;;3.13;2.07;;;;;;;;;;10405279;28;20212;-63
2022/12/25 23:30:55;;;;;;;5.73;2.53;;;;;;;;;;10412366;28;20212;-61
2022/12/25 23:35:56;;;;;;;3.33;2.17;;;;;;;;;;10412688;28;20255;-61
2022/12/25 23:40:56;;;;;;;4.20;2.30;;;;;;;;;;10411882;28;20567;-64
2022/12/25 23:45:56;;;;;;;3.60;1.90;;;;;;;;;;10412083;28;21001;-63
2022/12/25 23:51:00;;;;;;;3.43;2.00;;;;;;;;;;10412369;28;20794;-64
2022/12/25 23:56:00;;;;;;;2.13;1.80;;;;;;;;;;10411457;28;20271;-64
